createdAt,value
2022-12-28T00:01:25.385Z,2.13
2022-12-28T00:03:53.316Z,2.13
2022-12-28T00:06:22.428Z,2.28
2022-12-28T00:08:49.163Z,2.28
2022-12-28T00:11:27.847Z,2.35
2022-12-28T00:14:00.711Z,2.20
2022-12-28T00:16:36.408Z,2.46
2022-12-28T00:19:06.648Z,2.24
2022-12-28T00:21:34.247Z,2.27
2022-12-28T00:24:01.566Z,2.25
2022-12-28T00:26:30.938Z,2.45
2022-12-28T00:29:04.040Z,2.44
2022-12-28T00:31:31.585Z,2.35
2022-12-28T00:33:58.113Z,2.44
2022-12-28T00:36:25.110Z,2.51
2022-12-28T00:39:11.558Z,2.66
2022-12-28T00:41:38.022Z,2.82
2022-12-28T00:44:04.662Z,2.85
2022-12-28T00:46:31.193Z,3.00
2022-12-28T00:48:57.666Z,2.95
2022-12-28T00:51:24.121Z,3.07
2022-12-28T00:53:50.847Z,2.99
2022-12-28T00:56:20.051Z,2.90
2022-12-28T00:58:48.180Z,2.92
2022-12-28T01:01:18.091Z,2.90
2022-12-28T01:03:44.800Z,2.97
2022-12-28T01:06:13.182Z,2.96
2022-12-28T01:08:40.587Z,2.97
2022-12-28T01:11:08.906Z,3.21
2022-12-28T01:13:35.766Z,3.16
2022-12-28T01:16:10.811Z,3.33
2022-12-28T01:18:37.441Z,3.32
2022-12-28T01:21:12.071Z,3.49
2022-12-28T01:23:38.660Z,3.61
2022-12-28T01:26:05.622Z,3.60
2022-12-28T01:28:32.155Z,3.66
2022-12-28T01:31:04.247Z,3.66
2022-12-28T01:33:30.729Z,3.68
2022-12-28T01:35:57.978Z,3.72
2022-12-28T01:38:24.513Z,3.71
2022-12-28T01:40:50.984Z,3.89
2022-12-28T01:43:29.503Z,3.88
2022-12-28T01:45:56.628Z,3.89
2022-12-28T01:48:25.451Z,3.92
2022-12-28T01:50:53.592Z,3.86
2022-12-28T01:53:21.505Z,3.95
2022-12-28T01:55:48.852Z,3.90
2022-12-28T01:58:21.438Z,3.98
2022-12-28T02:00:48.163Z,4.08
2022-12-28T02:03:20.030Z,3.97
2022-12-28T02:05:50.753Z,4.08
2022-12-28T02:08:33.276Z,4.16
2022-12-28T02:11:00.265Z,4.15
2022-12-28T02:13:26.768Z,4.20
2022-12-28T02:15:57.192Z,4.16
2022-12-28T02:18:25.363Z,4.16
2022-12-28T02:20:59.936Z,4.19
2022-12-28T02:23:38.747Z,4.21
2022-12-28T02:26:43.283Z,4.33
2022-12-28T02:29:24.883Z,4.30
2022-12-28T02:32:12.898Z,4.43
2022-12-28T02:34:54.699Z,4.41
2022-12-28T02:37:27.187Z,4.35
2022-12-28T02:40:11.428Z,4.33
2022-12-28T02:42:39.242Z,4.43
2022-12-28T02:45:25.313Z,4.53
2022-12-28T02:48:10.399Z,4.54
2022-12-28T02:50:50.143Z,4.53
2022-12-28T02:53:53.988Z,4.55
2022-12-28T02:56:44.794Z,4.61
2022-12-28T02:59:33.112Z,4.70
2022-12-28T03:02:04.154Z,4.72
2022-12-28T03:04:47.305Z,4.77
2022-12-28T03:07:58.304Z,4.79
2022-12-28T03:10:38.488Z,4.72
2022-12-28T03:13:33.687Z,4.73
2022-12-28T03:16:06.471Z,4.77
2022-12-28T03:18:53.376Z,4.86
2022-12-28T03:21:40.542Z,4.78
2022-12-28T03:24:29.795Z,4.80
2022-12-28T03:27:17.128Z,4.82
2022-12-28T03:30:17.326Z,4.81
2022-12-28T03:32:44.579Z,4.84
2022-12-28T03:35:11.309Z,4.78
2022-12-28T03:37:47.333Z,4.77
2022-12-28T03:40:39.530Z,4.81
2022-12-28T03:43:36.257Z,4.87
2022-12-28T03:46:06.232Z,4.85
2022-12-28T03:48:35.331Z,4.92
2022-12-28T03:51:02.216Z,4.93
2022-12-28T03:53:39.138Z,4.95
2022-12-28T03:56:12.393Z,4.98
2022-12-28T03:58:40.172Z,4.95
2022-12-28T04:01:08.309Z,4.98
2022-12-28T04:03:36.774Z,5.07
2022-12-28T04:06:03.555Z,5.17
2022-12-28T04:08:32.133Z,5.02
2022-12-28T04:11:00.446Z,5.10
2022-12-28T04:13:33.482Z,5.06
2022-12-28T04:16:10.073Z,5.14
2022-12-28T04:18:38.554Z,5.10
2022-12-28T04:21:05.705Z,5.19
2022-12-28T04:23:32.722Z,5.07
2022-12-28T04:26:17.855Z,5.14
2022-12-28T04:28:45.859Z,5.15
2022-12-28T04:31:31.037Z,5.14
2022-12-28T04:34:11.127Z,5.11
2022-12-28T04:36:41.861Z,5.08
2022-12-28T04:39:13.204Z,5.11
2022-12-28T04:41:40.202Z,5.14
2022-12-28T04:44:06.752Z,5.15
2022-12-28T04:46:33.451Z,5.18
2022-12-28T04:49:00.951Z,5.12
2022-12-28T04:51:28.864Z,5.08
2022-12-28T04:53:56.687Z,5.17
2022-12-28T04:56:24.329Z,5.17
2022-12-28T04:58:55.351Z,5.21
2022-12-28T05:01:22.227Z,5.23
2022-12-28T05:03:55.019Z,5.28
2022-12-28T05:06:24.512Z,5.14
2022-12-28T05:08:51.531Z,5.16
2022-12-28T05:11:20.832Z,5.34
2022-12-28T05:13:47.707Z,5.32
2022-12-28T05:16:18.847Z,5.28
2022-12-28T05:18:45.645Z,5.27
2022-12-28T05:21:21.387Z,5.29
2022-12-28T05:23:49.041Z,5.28
2022-12-28T05:26:19.037Z,5.36
2022-12-28T05:28:45.858Z,5.32
2022-12-28T05:31:14.980Z,5.33
2022-12-28T05:33:41.768Z,5.34
2022-12-28T05:36:16.813Z,5.36
2022-12-28T05:38:43.864Z,5.39
2022-12-28T05:41:25.159Z,5.43
2022-12-28T05:43:52.364Z,5.42
2022-12-28T05:46:21.708Z,5.44
2022-12-28T05:48:48.322Z,5.48
2022-12-28T05:51:19.120Z,5.49
2022-12-28T05:53:45.984Z,5.52
2022-12-28T05:56:18.391Z,5.51
2022-12-28T05:58:46.911Z,5.45
2022-12-28T06:01:19.065Z,5.46
2022-12-28T06:03:47.847Z,5.55
2022-12-28T06:06:19.014Z,5.49
2022-12-28T06:08:47.664Z,5.51
2022-12-28T06:11:17.113Z,5.53
2022-12-28T06:13:44.154Z,5.56
2022-12-28T06:16:22.673Z,5.55
2022-12-28T06:18:51.731Z,5.47
2022-12-28T06:21:22.277Z,5.41
2022-12-28T06:23:49.392Z,5.52
2022-12-28T06:26:18.579Z,5.54
2022-12-28T06:28:45.779Z,5.60
2022-12-28T06:31:16.659Z,5.59
2022-12-28T06:33:43.818Z,5.50
2022-12-28T06:36:20.217Z,5.51
2022-12-28T06:38:48.637Z,5.54
2022-12-28T06:41:16.594Z,5.58
2022-12-28T06:43:43.688Z,5.59
2022-12-28T06:46:11.657Z,5.54
2022-12-28T06:48:38.434Z,5.47
2022-12-28T06:51:11.976Z,5.53
2022-12-28T06:53:39.326Z,5.51
2022-12-28T06:56:13.386Z,5.58
2022-12-28T06:58:40.110Z,5.62
2022-12-28T07:01:28.253Z,5.60
2022-12-28T07:03:56.960Z,5.68
2022-12-28T07:06:26.484Z,5.60
2022-12-28T07:09:00.235Z,5.59
2022-12-28T07:11:28.929Z,5.63
2022-12-28T07:13:56.356Z,5.51
2022-12-28T07:16:24.446Z,5.60
2022-12-28T07:18:51.032Z,5.55
2022-12-28T07:21:24.120Z,5.61
2022-12-28T07:23:51.990Z,5.60
2022-12-28T07:26:21.187Z,5.56
2022-12-28T07:28:49.570Z,5.56
2022-12-28T07:31:19.829Z,5.53
2022-12-28T07:33:47.278Z,5.54
2022-12-28T07:36:17.656Z,5.52
2022-12-28T07:38:44.638Z,5.54
2022-12-28T07:41:20.642Z,5.55
2022-12-28T07:43:47.765Z,5.62
2022-12-28T07:46:22.868Z,5.56
2022-12-28T07:48:50.547Z,5.59
2022-12-28T07:51:27.036Z,5.59
2022-12-28T07:53:54.621Z,5.61
2022-12-28T07:56:22.627Z,5.58
2022-12-28T08:01:18.155Z,5.63
2022-12-28T08:03:45.084Z,5.60
2022-12-28T08:06:13.315Z,5.65
2022-12-28T08:08:42.492Z,5.66
2022-12-28T08:11:11.991Z,5.70
2022-12-28T08:13:41.269Z,5.73
2022-12-28T08:16:10.031Z,5.69
2022-12-28T08:18:36.596Z,5.61
2022-12-28T08:21:18.364Z,5.72
2022-12-28T08:23:45.313Z,5.79
2022-12-28T08:26:17.861Z,5.80
2022-12-28T08:28:45.585Z,5.85
2022-12-28T08:31:17.730Z,5.85
2022-12-28T08:33:44.199Z,5.89
2022-12-28T08:36:11.445Z,5.92
2022-12-28T08:38:39.568Z,5.95
2022-12-28T08:41:09.153Z,5.93
2022-12-28T08:43:35.733Z,6.04
2022-12-28T08:46:12.468Z,6.00
2022-12-28T08:48:39.557Z,6.05
2022-12-28T08:51:11.407Z,6.10
2022-12-28T08:53:38.410Z,6.02
2022-12-28T08:56:06.808Z,6.13
2022-12-28T08:58:33.928Z,6.09
2022-12-28T09:01:14.972Z,6.11
2022-12-28T09:03:43.867Z,6.21
2022-12-28T09:06:13.704Z,6.14
2022-12-28T09:08:42.347Z,6.12
2022-12-28T09:11:11.614Z,6.17
2022-12-28T09:13:38.783Z,6.28
2022-12-28T09:16:11.250Z,6.32
2022-12-28T09:18:39.010Z,6.35
2022-12-28T09:21:13.962Z,6.33
2022-12-28T09:23:42.952Z,6.30
2022-12-28T09:26:18.600Z,6.28
2022-12-28T09:28:53.606Z,6.37
2022-12-28T09:31:22.681Z,6.47
2022-12-28T09:36:55.817Z,6.58
2022-12-28T09:39:24.836Z,6.67
2022-12-28T09:41:56.403Z,6.71
2022-12-28T09:44:41.446Z,6.79
2022-12-28T09:47:16.771Z,6.82
2022-12-28T09:50:26.870Z,6.76
2022-12-28T09:53:20.071Z,6.72
2022-12-28T09:55:57.829Z,6.77
2022-12-28T09:58:24.564Z,6.86
2022-12-28T10:00:56.013Z,6.81
2022-12-28T10:03:32.046Z,6.88
2022-12-28T10:05:59.279Z,6.97
2022-12-28T10:08:27.602Z,7.02
2022-12-28T10:10:59.270Z,7.00
2022-12-28T10:14:00.761Z,7.14
2022-12-28T10:16:20.164Z,7.27
2022-12-28T10:18:48.336Z,7.05
2022-12-28T10:21:19.960Z,6.99
2022-12-28T10:26:42.829Z,7.22
2022-12-28T10:29:16.889Z,7.39
2022-12-28T10:31:43.501Z,7.25
2022-12-28T10:34:21.085Z,7.45
2022-12-28T10:36:49.091Z,7.64
2022-12-28T10:39:20.490Z,7.93
2022-12-28T10:41:48.032Z,8.22
2022-12-28T10:44:38.799Z,8.45
2022-12-28T10:47:18.114Z,7.98
2022-12-28T10:50:18.605Z,7.77
2022-12-28T10:52:37.847Z,7.89
2022-12-28T10:55:31.833Z,7.76
2022-12-28T10:58:30.104Z,7.73
2022-12-28T11:01:04.181Z,7.62
2022-12-28T11:03:35.399Z,7.53
2022-12-28T11:06:26.385Z,7.66
2022-12-28T11:11:48.892Z,7.50
2022-12-28T11:14:35.837Z,7.58
2022-12-28T11:17:17.506Z,7.59
2022-12-28T11:19:44.204Z,7.64
2022-12-28T11:22:13.220Z,7.58
2022-12-28T11:24:40.577Z,7.76
2022-12-28T11:27:13.606Z,7.83
2022-12-28T11:29:44.874Z,7.60
2022-12-28T11:32:32.489Z,7.55
2022-12-28T11:35:00.293Z,7.63
2022-12-28T11:37:26.924Z,7.57
2022-12-28T11:39:53.861Z,7.45
2022-12-28T11:42:40.985Z,7.56
2022-12-28T11:45:16.564Z,7.61
2022-12-28T11:47:43.492Z,7.63
2022-12-28T11:50:34.584Z,7.69
2022-12-28T11:53:03.969Z,7.66
2022-12-28T11:55:43.991Z,7.90
2022-12-28T11:58:39.679Z,8.17
2022-12-28T12:01:09.590Z,8.16
2022-12-28T12:03:58.006Z,8.14
2022-12-28T12:06:42.563Z,8.47
2022-12-28T12:09:21.191Z,8.59
2022-12-28T12:11:49.357Z,8.75
2022-12-28T12:14:21.638Z,8.51
2022-12-28T12:16:59.865Z,8.58
2022-12-28T12:19:30.120Z,8.61
2022-12-28T12:22:03.006Z,8.55
2022-12-28T12:24:37.268Z,8.52
2022-12-28T12:27:36.472Z,8.45
2022-12-28T12:30:07.855Z,8.27
2022-12-28T12:32:47.642Z,8.44
2022-12-28T12:35:16.606Z,8.32
2022-12-28T12:37:56.656Z,8.58
2022-12-28T12:40:42.061Z,8.60
2022-12-28T12:43:27.708Z,8.71
2022-12-28T12:46:21.940Z,8.55
2022-12-28T12:49:11.821Z,8.40
2022-12-28T12:52:03.149Z,8.47
2022-12-28T12:55:07.076Z,8.39
2022-12-28T12:57:44.999Z,8.22
2022-12-28T13:00:19.745Z,8.16
2022-12-28T13:03:13.789Z,8.25
2022-12-28T13:05:45.620Z,8.42
2022-12-28T13:08:22.782Z,8.38
2022-12-28T13:10:50.227Z,8.43
2022-12-28T13:13:37.924Z,8.40
2022-12-28T13:16:09.635Z,8.53
2022-12-28T13:18:45.003Z,8.39
2022-12-28T13:24:54.664Z,8.54
2022-12-28T13:27:47.132Z,8.28
2022-12-28T13:31:08.191Z,8.17
2022-12-28T13:37:40.530Z,7.91
2022-12-28T13:40:17.865Z,7.98
2022-12-28T13:43:30.449Z,8.03
2022-12-28T13:46:08.108Z,7.97
2022-12-28T13:48:39.920Z,8.01
2022-12-28T13:51:13.494Z,7.97
2022-12-28T13:53:45.775Z,7.92
2022-12-28T13:56:14.579Z,7.97
2022-12-28T13:58:48.296Z,8.00
2022-12-28T14:01:19.320Z,7.93
2022-12-28T14:03:46.769Z,7.90
2022-12-28T14:06:16.635Z,7.93
2022-12-28T14:08:44.563Z,7.93
2022-12-28T14:11:11.666Z,7.85
2022-12-28T14:13:39.490Z,7.87
2022-12-28T14:16:07.556Z,7.93
2022-12-28T14:18:34.705Z,7.84
2022-12-28T14:21:02.665Z,7.88
2022-12-28T14:23:31.933Z,7.83
2022-12-28T14:26:04.561Z,7.84
2022-12-28T14:28:39.341Z,7.77
2022-12-28T14:31:09.424Z,7.63
2022-12-28T14:33:55.313Z,7.67
2022-12-28T14:36:26.349Z,7.67
2022-12-28T14:38:59.711Z,7.59
2022-12-28T14:41:34.588Z,7.59
2022-12-28T14:44:03.528Z,7.51
2022-12-28T14:46:36.175Z,7.55
2022-12-28T14:49:28.346Z,7.51
2022-12-28T14:52:35.244Z,7.40
2022-12-28T14:55:21.906Z,7.49
2022-12-28T14:57:51.958Z,7.32
2022-12-28T15:00:34.110Z,7.37
2022-12-28T15:03:17.844Z,7.28
2022-12-28T15:05:51.928Z,7.20
2022-12-28T15:08:19.096Z,7.25
2022-12-28T15:10:50.419Z,7.26
2022-12-28T15:13:18.286Z,7.26
2022-12-28T15:15:45.974Z,7.17
2022-12-28T15:18:12.502Z,7.17
2022-12-28T15:20:39.331Z,7.18
2022-12-28T15:23:06.061Z,7.18
2022-12-28T15:25:34.680Z,7.18
2022-12-28T15:28:01.220Z,7.10
2022-12-28T15:30:29.290Z,7.14
2022-12-28T15:32:56.536Z,7.09
2022-12-28T15:35:23.251Z,7.04
2022-12-28T15:37:49.920Z,7.06
2022-12-28T15:40:16.519Z,7.13
2022-12-28T15:42:45.309Z,6.98
2022-12-28T15:45:12.623Z,6.97
2022-12-28T15:47:39.235Z,7.00
2022-12-28T15:50:07.322Z,7.03
2022-12-28T15:52:34.191Z,7.06
2022-12-28T15:55:00.824Z,6.97
2022-12-28T15:57:28.056Z,6.95
2022-12-28T15:59:55.561Z,7.05
2022-12-28T16:02:23.332Z,7.14
2022-12-28T16:04:50.385Z,7.19
2022-12-28T16:07:19.156Z,7.26
2022-12-28T16:09:46.251Z,7.13
2022-12-28T16:12:17.646Z,7.18
2022-12-28T16:14:47.639Z,7.25
2022-12-28T16:17:15.230Z,7.28
2022-12-28T16:19:41.887Z,7.36
2022-12-28T16:22:08.863Z,7.41
2022-12-28T16:24:36.368Z,7.33
2022-12-28T16:27:03.325Z,7.46
2022-12-28T16:29:30.070Z,7.45
2022-12-28T16:31:58.759Z,7.43
2022-12-28T16:34:25.578Z,7.59
2022-12-28T16:36:57.004Z,7.60
2022-12-28T16:39:23.992Z,7.52
2022-12-28T16:41:50.844Z,7.58
2022-12-28T16:44:20.935Z,7.61
2022-12-28T16:46:48.327Z,7.62
2022-12-28T16:49:15.600Z,7.55
2022-12-28T16:51:45.091Z,7.66
2022-12-28T16:54:20.975Z,7.63
2022-12-28T16:56:48.956Z,7.62
2022-12-28T16:59:25.160Z,7.67
2022-12-28T17:01:53.717Z,7.67
2022-12-28T17:04:20.846Z,7.67
2022-12-28T17:06:51.994Z,7.59
2022-12-28T17:09:19.959Z,7.60
2022-12-28T17:11:48.491Z,7.70
2022-12-28T17:14:24.529Z,7.75
2022-12-28T17:17:01.982Z,7.76
2022-12-28T17:19:28.702Z,7.72
2022-12-28T17:21:55.283Z,7.73
2022-12-28T17:24:21.935Z,7.76
2022-12-28T17:26:48.920Z,7.79
2022-12-28T17:29:15.613Z,7.76
2022-12-28T17:31:43.649Z,7.82
2022-12-28T17:34:10.961Z,7.64
2022-12-28T17:36:37.601Z,7.80
2022-12-28T17:39:04.623Z,7.70
2022-12-28T17:41:31.564Z,7.66
2022-12-28T17:43:59.937Z,7.61
2022-12-28T17:46:28.882Z,7.55
2022-12-28T17:48:57.562Z,7.70
2022-12-28T17:51:25.468Z,7.72
2022-12-28T17:53:54.712Z,7.70
2022-12-28T17:56:21.302Z,7.74
2022-12-28T17:58:49.442Z,7.80
2022-12-28T18:01:16.310Z,7.81
2022-12-28T18:03:43.123Z,7.74
2022-12-28T18:06:09.993Z,7.78
2022-12-28T18:08:36.547Z,7.83
2022-12-28T18:11:03.116Z,7.92
2022-12-28T18:13:30.112Z,7.86
2022-12-28T18:15:56.869Z,7.87
2022-12-28T18:18:23.529Z,7.91
2022-12-28T18:21:01.470Z,7.89
2022-12-28T18:23:28.591Z,7.83
2022-12-28T18:26:09.980Z,7.75
2022-12-28T18:28:37.012Z,7.77
2022-12-28T18:31:04.443Z,7.94
2022-12-28T18:33:32.156Z,8.02
2022-12-28T18:36:01.569Z,8.11
2022-12-28T18:38:28.242Z,8.07
2022-12-28T18:40:57.222Z,8.11
2022-12-28T18:43:24.724Z,8.16
2022-12-28T18:45:59.728Z,8.23
2022-12-28T18:48:27.229Z,8.20
2022-12-28T18:50:59.559Z,8.23
2022-12-28T18:53:27.517Z,8.23
2022-12-28T18:56:01.931Z,8.43
2022-12-28T18:58:30.640Z,8.27
2022-12-28T19:04:10.068Z,8.33
2022-12-28T19:06:37.788Z,8.30
2022-12-28T19:09:06.069Z,8.46
2022-12-28T19:11:32.784Z,8.38
2022-12-28T19:13:59.295Z,8.44
2022-12-28T19:16:31.013Z,8.48
2022-12-28T19:18:58.846Z,8.46
2022-12-28T19:21:28.155Z,8.44
2022-12-28T19:23:56.680Z,8.48
2022-12-28T19:26:24.725Z,8.40
2022-12-28T19:28:52.338Z,8.41
2022-12-28T19:31:18.965Z,8.36
2022-12-28T19:33:45.750Z,8.39
2022-12-28T19:36:12.674Z,8.42
2022-12-28T19:38:39.310Z,8.40
2022-12-28T19:41:08.919Z,8.41
2022-12-28T19:43:36.404Z,8.47
2022-12-28T19:46:06.065Z,8.53
2022-12-28T19:48:33.078Z,8.53
2022-12-28T19:50:59.808Z,8.50
2022-12-28T19:53:27.667Z,8.60
2022-12-28T19:56:04.847Z,8.61
2022-12-28T19:58:32.410Z,8.59
2022-12-28T20:01:17.563Z,8.56
2022-12-28T20:03:45.354Z,8.61
2022-12-28T20:06:22.202Z,8.77
2022-12-28T20:08:50.954Z,8.71
2022-12-28T20:11:18.802Z,8.78
2022-12-28T20:13:51.264Z,8.88
2022-12-28T20:16:18.123Z,8.88
2022-12-28T20:18:49.075Z,8.87
2022-12-28T20:21:19.641Z,8.92
2022-12-28T20:23:48.366Z,8.82
2022-12-28T20:26:16.153Z,8.82
2022-12-28T20:28:42.933Z,8.74
2022-12-28T20:31:13.159Z,8.78
2022-12-28T20:33:40.986Z,8.80
2022-12-28T20:36:14.315Z,8.78
2022-12-28T20:38:41.360Z,8.87
2022-12-28T20:41:35.377Z,8.92
2022-12-28T20:44:05.148Z,8.93
2022-12-28T20:46:31.832Z,8.91
2022-12-28T20:48:59.197Z,8.74
2022-12-28T20:51:26.643Z,8.63
2022-12-28T20:53:53.742Z,8.61
2022-12-28T20:56:21.657Z,8.55
2022-12-28T20:58:48.668Z,8.62
2022-12-28T21:01:16.421Z,8.69
2022-12-28T21:03:44.349Z,8.62
2022-12-28T21:06:11.679Z,8.65
2022-12-28T21:08:38.671Z,8.56
2022-12-28T21:11:05.778Z,8.61
2022-12-28T21:13:32.446Z,8.51
2022-12-28T21:16:02.445Z,8.46
2022-12-28T21:18:29.791Z,8.39
2022-12-28T21:20:58.754Z,8.38
2022-12-28T21:23:25.656Z,8.42
2022-12-28T21:25:52.275Z,8.42
2022-12-28T21:28:18.805Z,8.37
2022-12-28T21:30:53.324Z,8.33
2022-12-28T21:33:19.997Z,8.29
2022-12-28T21:36:04.192Z,8.24
2022-12-28T21:38:32.242Z,8.35
2022-12-28T21:41:01.133Z,8.33
2022-12-28T21:43:28.686Z,8.28
2022-12-28T21:46:02.649Z,8.10
2022-12-28T21:48:34.321Z,8.09
2022-12-28T21:51:27.941Z,7.92
2022-12-28T21:53:55.148Z,7.86
2022-12-28T21:56:21.662Z,7.83
2022-12-28T21:58:48.282Z,7.79
2022-12-28T22:01:33.491Z,7.77
2022-12-28T22:04:18.730Z,7.69
2022-12-28T22:06:45.253Z,7.70
2022-12-28T22:09:30.340Z,7.74
2022-12-28T22:12:15.299Z,7.63
2022-12-28T22:14:41.837Z,7.63
2022-12-28T22:17:13.873Z,7.72
2022-12-28T22:19:41.017Z,7.68
2022-12-28T22:22:07.626Z,7.73
2022-12-28T22:24:34.184Z,7.84
2022-12-28T22:27:00.751Z,7.82
2022-12-28T22:29:27.234Z,7.79
2022-12-28T22:31:53.846Z,7.88
2022-12-28T22:34:20.405Z,8.05
2022-12-28T22:36:46.948Z,7.94
2022-12-28T22:39:13.510Z,7.91
2022-12-28T22:41:40.042Z,7.95
2022-12-28T22:44:06.567Z,8.01
2022-12-28T22:46:33.284Z,8.01
2022-12-28T22:48:59.931Z,8.05
2022-12-28T22:51:26.447Z,8.07
2022-12-28T22:53:52.952Z,8.07
2022-12-28T22:56:22.344Z,8.05
2022-12-28T22:58:48.959Z,8.12
2022-12-28T23:01:18.072Z,8.08
2022-12-28T23:03:47.210Z,8.13
2022-12-28T23:06:17.581Z,8.17
2022-12-28T23:08:44.957Z,8.14
2022-12-28T23:11:32.663Z,8.15
2022-12-28T23:14:21.965Z,8.14
2022-12-28T23:16:49.168Z,8.15
2022-12-28T23:19:34.834Z,8.07
2022-12-28T23:22:21.802Z,7.95
2022-12-28T23:25:07.229Z,7.85
2022-12-28T23:27:42.702Z,7.81
2022-12-28T23:30:13.429Z,7.86
2022-12-28T23:32:40.419Z,7.80
2022-12-28T23:35:07.237Z,7.73
2022-12-28T23:37:34.249Z,7.73
2022-12-28T23:40:00.730Z,7.75
2022-12-28T23:42:27.376Z,7.68
2022-12-28T23:44:53.894Z,7.63
2022-12-28T23:47:20.743Z,7.66
2022-12-28T23:49:47.258Z,7.69
2022-12-28T23:52:13.738Z,7.62
2022-12-28T23:54:40.307Z,7.62
2022-12-28T23:57:06.845Z,7.60
2022-12-28T23:59:33.395Z,7.60
